createdAt,value
2018-04-06T00:00:05.493Z,16.93
2018-04-06T00:02:31.650Z,15.60
2018-04-06T00:04:57.842Z,12.07
2018-04-06T00:07:23.923Z,13.30
2018-04-06T00:09:49.950Z,11.77
2018-04-06T00:12:16.250Z,14.00
2018-04-06T00:14:42.312Z,10.67
2018-04-06T00:17:08.324Z,12.57
2018-04-06T00:19:34.352Z,13.77
2018-04-06T00:22:00.484Z,11.13
2018-04-06T00:24:26.870Z,13.17
2018-04-06T00:26:52.951Z,12.93
2018-04-06T00:29:19.601Z,11.03
2018-04-06T00:31:45.786Z,18.40
2018-04-06T00:34:11.852Z,11.27
2018-04-06T00:36:37.904Z,17.87
2018-04-06T00:39:04.948Z,14.10
2018-04-06T00:41:31.250Z,24.40
2018-04-06T00:43:57.370Z,13.40
2018-04-06T00:46:23.460Z,21.20
2018-04-06T00:48:49.490Z,13.80
2018-04-06T00:51:17.499Z,11.93
2018-04-06T00:53:46.387Z,12.00
2018-04-06T00:56:12.357Z,12.13
2018-04-06T00:58:38.410Z,14.37
2018-04-06T01:01:04.959Z,16.13
2018-04-06T01:03:31.095Z,15.53
2018-04-06T01:05:57.246Z,11.67
2018-04-06T01:08:23.887Z,16.40
2018-04-06T01:10:49.928Z,11.17
2018-04-06T01:13:16.019Z,12.20
2018-04-06T01:15:42.075Z,14.93
2018-04-06T01:18:08.127Z,12.30
2018-04-06T01:20:34.160Z,12.53
2018-04-06T01:23:00.196Z,12.50
2018-04-06T01:25:26.584Z,11.23
2018-04-06T01:27:52.595Z,10.90
2018-04-06T01:30:18.684Z,18.00
2018-04-06T01:32:44.665Z,19.00
2018-04-06T01:35:10.686Z,9.20
2018-04-06T01:37:36.757Z,11.57
2018-04-06T01:40:02.835Z,11.33
2018-04-06T01:42:28.883Z,12.10
2018-04-06T01:44:54.846Z,12.40
2018-04-06T01:47:20.832Z,17.30
2018-04-06T01:49:47.186Z,12.00
2018-04-06T01:52:13.459Z,14.23
2018-04-06T01:54:39.426Z,12.07
2018-04-06T01:57:05.554Z,14.70
2018-04-06T01:59:31.683Z,13.00
2018-04-06T02:01:57.750Z,11.80
2018-04-06T02:04:24.185Z,13.32
2018-04-06T02:06:50.269Z,13.00
2018-04-06T02:09:16.354Z,12.80
2018-04-06T02:11:42.431Z,10.10
2018-04-06T02:14:08.449Z,13.37
2018-04-06T02:16:34.472Z,11.07
2018-04-06T02:19:00.483Z,12.60
2018-04-06T02:21:26.496Z,11.03
2018-04-06T02:23:52.598Z,14.75
2018-04-06T02:26:18.592Z,13.75
2018-04-06T02:28:44.777Z,11.37
2018-04-06T02:31:10.943Z,13.75
2018-04-06T02:33:37.204Z,11.43
2018-04-06T02:36:03.190Z,11.55
2018-04-06T02:38:29.238Z,13.68
2018-04-06T02:40:55.260Z,10.65
2018-04-06T02:43:21.275Z,10.27
2018-04-06T02:45:47.284Z,15.32
2018-04-06T02:48:13.269Z,14.00
2018-04-06T02:50:39.747Z,13.37
2018-04-06T02:53:05.732Z,13.32
2018-04-06T02:55:32.023Z,15.87
2018-04-06T02:57:58.339Z,12.40
2018-04-06T03:00:24.342Z,12.30
2018-04-06T03:02:50.795Z,11.90
2018-04-06T03:05:18.225Z,16.62
2018-04-06T03:07:44.515Z,14.32
2018-04-06T03:10:10.843Z,11.68
2018-04-06T03:12:37.006Z,12.40
2018-04-06T03:15:03.087Z,15.45
2018-04-06T03:17:29.112Z,11.27
2018-04-06T03:19:55.448Z,13.62
2018-04-06T03:22:21.607Z,13.73
2018-04-06T03:24:47.656Z,11.68
2018-04-06T03:27:13.814Z,16.05
2018-04-06T03:29:39.937Z,9.93
2018-04-06T03:32:05.963Z,13.13
2018-04-06T03:34:32.286Z,13.23
2018-04-06T03:36:58.308Z,15.20
2018-04-06T03:39:24.417Z,15.77
2018-04-06T03:41:50.636Z,13.15
2018-04-06T03:44:17.360Z,11.05
2018-04-06T03:46:43.349Z,11.20
2018-04-06T03:49:09.377Z,14.73
2018-04-06T03:51:35.381Z,16.85
2018-04-06T03:54:01.434Z,17.33
2018-04-06T03:56:27.520Z,21.17
2018-04-06T03:58:53.528Z,15.27
2018-04-06T04:01:19.657Z,14.02
2018-04-06T04:03:45.723Z,17.27
2018-04-06T04:06:11.763Z,14.93
2018-04-06T04:08:37.801Z,17.45
2018-04-06T04:11:03.841Z,18.15
2018-04-06T04:13:29.966Z,13.48
2018-04-06T04:15:56.027Z,19.48
2018-04-06T04:18:22.077Z,17.58
2018-04-06T04:20:48.100Z,14.43
2018-04-06T04:23:14.141Z,16.20
2018-04-06T04:25:40.146Z,17.25
2018-04-06T04:28:06.472Z,17.17
2018-04-06T04:30:32.969Z,13.93
2018-04-06T04:32:59.025Z,20.75
2018-04-06T04:35:25.046Z,22.70
2018-04-06T04:37:51.115Z,19.33
2018-04-06T04:40:17.821Z,15.50
2018-04-06T04:42:44.310Z,17.70
2018-04-06T04:45:10.360Z,13.98
2018-04-06T04:47:37.053Z,22.77
2018-04-06T04:50:04.417Z,19.83
2018-04-06T04:52:30.492Z,17.80
2018-04-06T04:54:56.922Z,20.35
2018-04-06T04:57:24.576Z,22.17
2018-04-06T04:59:50.606Z,16.42
2018-04-06T05:02:17.656Z,17.15
2018-04-06T05:04:43.775Z,17.27
2018-04-06T05:07:09.952Z,20.83
2018-04-06T05:09:36.635Z,14.20
2018-04-06T05:12:02.942Z,15.32
2018-04-06T05:14:29.012Z,15.50
2018-04-06T05:16:55.343Z,18.60
2018-04-06T05:19:21.667Z,17.73
2018-04-06T05:21:48.084Z,14.80
2018-04-06T05:24:14.434Z,13.07
2018-04-06T05:26:40.505Z,15.05
2018-04-06T05:29:06.683Z,16.10
2018-04-06T05:31:32.702Z,14.15
2018-04-06T05:33:59.987Z,19.20
2018-04-06T05:36:26.073Z,14.93
2018-04-06T05:38:53.149Z,14.95
2018-04-06T05:41:19.987Z,20.98
2018-04-06T05:43:48.073Z,16.55
2018-04-06T05:46:14.169Z,17.55
2018-04-06T05:48:40.228Z,17.83
2018-04-06T05:51:06.333Z,15.63
2018-04-06T05:53:32.414Z,16.95
2018-04-06T05:55:58.730Z,17.30
2018-04-06T05:58:24.845Z,16.55
2018-04-06T06:00:51.772Z,23.50
2018-04-06T06:03:17.853Z,17.33
2018-04-06T06:05:44.186Z,16.52
2018-04-06T06:08:10.172Z,26.05
2018-04-06T06:10:36.302Z,18.13
2018-04-06T06:13:03.295Z,21.83
2018-04-06T06:15:29.358Z,17.60
2018-04-06T06:17:55.481Z,14.77
2018-04-06T06:20:21.730Z,18.48
2018-04-06T06:22:48.000Z,15.95
2018-04-06T06:25:14.064Z,18.30
2018-04-06T06:27:40.218Z,19.90
2018-04-06T06:30:07.297Z,18.50
2018-04-06T06:32:33.627Z,18.77
2018-04-06T06:35:00.715Z,15.18
2018-04-06T06:37:26.725Z,18.95
2018-04-06T06:39:53.821Z,22.02
2018-04-06T06:42:19.945Z,16.48
2018-04-06T06:44:46.187Z,16.08
2018-04-06T06:47:14.369Z,20.60
2018-04-06T06:49:40.481Z,19.55
2018-04-06T06:52:07.549Z,19.70
2018-04-06T06:54:34.456Z,20.20
2018-04-06T06:57:01.011Z,22.90
2018-04-06T06:59:27.220Z,19.73
2018-04-06T07:01:53.342Z,21.73
2018-04-06T07:04:19.499Z,17.37
2018-04-06T07:06:46.053Z,24.53
2018-04-06T07:09:12.160Z,34.83
2018-04-06T07:11:38.481Z,19.17
2018-04-06T07:14:04.587Z,23.43
2018-04-06T07:16:30.923Z,19.03
2018-04-06T07:18:57.007Z,21.17
2018-04-06T07:21:23.095Z,16.50
2018-04-06T07:23:49.204Z,16.33
2018-04-06T07:26:16.449Z,16.60
2018-04-06T07:28:42.870Z,17.10
2018-04-06T07:31:09.012Z,12.73
2018-04-06T07:33:35.102Z,14.90
2018-04-06T07:36:01.162Z,14.70
2018-04-06T07:38:27.208Z,15.47
2018-04-06T07:40:53.546Z,12.90
2018-04-06T07:43:20.114Z,20.13
2018-04-06T07:45:46.206Z,21.80
2018-04-06T07:48:12.333Z,18.40
2018-04-06T07:50:39.048Z,26.80
2018-04-06T07:53:05.082Z,16.97
2018-04-06T07:55:31.729Z,38.87
2018-04-06T08:14:42.868Z,12.30
2018-04-06T08:17:09.171Z,26.03
2018-04-06T08:19:35.382Z,15.87
2018-04-06T08:22:01.512Z,12.70
2018-04-06T08:24:27.566Z,11.80
2018-04-06T08:26:53.638Z,12.73
2018-04-06T08:29:19.698Z,13.47
2018-04-06T08:31:45.707Z,16.70
2018-04-06T08:34:12.027Z,10.90
2018-04-06T08:36:38.016Z,16.17
2018-04-06T08:39:05.083Z,17.77
2018-04-06T08:41:31.472Z,8.53
2018-04-06T08:43:57.619Z,9.10
2018-04-06T08:46:23.693Z,12.17
2018-04-06T08:48:50.264Z,19.20
2018-04-06T08:51:16.451Z,31.80
2018-04-06T08:53:42.848Z,11.83
2018-04-06T08:56:09.298Z,8.23
2018-04-06T08:58:37.410Z,10.70
2018-04-06T09:01:03.444Z,8.70
2018-04-06T09:03:29.548Z,8.13
2018-04-06T09:05:57.284Z,7.97
2018-04-06T09:08:23.464Z,8.20
2018-04-06T09:10:49.543Z,8.03
2018-04-06T09:13:15.860Z,8.30
2018-04-06T09:15:42.105Z,26.20
2018-04-06T09:18:08.996Z,11.33
2018-04-06T09:20:36.302Z,11.23
2018-04-06T09:23:03.619Z,20.10
2018-04-06T09:25:31.676Z,14.70
2018-04-06T09:27:58.643Z,11.13
2018-04-06T09:30:26.843Z,17.83
2018-04-06T09:32:52.932Z,11.80
2018-04-06T09:35:19.054Z,8.80
2018-04-06T09:37:45.695Z,6.70
2018-04-06T09:40:11.662Z,8.93
2018-04-06T09:42:38.073Z,8.87
2018-04-06T09:45:04.801Z,5.00
2018-04-06T09:47:32.091Z,6.73
2018-04-06T09:49:59.089Z,10.20
2018-04-06T09:52:25.139Z,5.30
2018-04-06T09:54:52.191Z,12.47
2018-04-06T09:57:18.297Z,8.37
2018-04-06T09:59:45.498Z,9.73
2018-04-06T10:02:12.419Z,5.80
2018-04-06T10:04:38.484Z,10.00
2018-04-06T10:07:04.505Z,3.93
2018-04-06T10:09:31.319Z,7.77
2018-04-06T10:11:58.454Z,5.60
2018-04-06T10:14:24.539Z,6.30
2018-04-06T10:16:50.534Z,5.60
2018-04-06T10:19:16.962Z,5.00
2018-04-06T10:21:44.357Z,6.60
2018-04-06T10:24:10.409Z,8.73
2018-04-06T10:26:37.754Z,6.90
2018-04-06T10:29:03.829Z,7.03
2018-04-06T10:31:30.578Z,7.03
2018-04-06T10:33:56.864Z,4.17
2018-04-06T10:36:22.963Z,11.60
2018-04-06T10:38:49.641Z,4.70
2018-04-06T10:41:15.639Z,10.83
2018-04-06T10:43:41.681Z,9.30
2018-04-06T10:46:07.648Z,5.63
2018-04-06T10:48:33.791Z,6.10
2018-04-06T10:51:00.205Z,3.60
2018-04-06T10:53:26.717Z,8.27
2018-04-06T10:55:53.066Z,5.27
2018-04-06T10:58:19.160Z,4.33
2018-04-06T11:00:45.174Z,7.30
2018-04-06T11:03:11.270Z,7.43
2018-04-06T11:05:37.384Z,10.03
2018-04-06T11:08:03.521Z,8.67
2018-04-06T11:10:29.526Z,4.07
2018-04-06T11:12:56.018Z,7.60
2018-04-06T11:15:22.427Z,7.77
2018-04-06T11:17:48.569Z,7.10
2018-04-06T11:20:14.685Z,12.40
2018-04-06T11:22:40.673Z,11.50
2018-04-06T11:25:06.780Z,8.13
2018-04-06T11:27:33.074Z,13.13
2018-04-06T11:29:59.158Z,5.00
2018-04-06T11:32:25.235Z,7.70
2018-04-06T11:34:51.628Z,5.70
2018-04-06T11:37:18.161Z,8.90
2018-04-06T11:39:44.250Z,10.70
2018-04-06T11:42:10.299Z,10.27
2018-04-06T11:44:37.346Z,7.10
2018-04-06T11:47:03.438Z,9.50
2018-04-06T11:49:29.653Z,6.93
2018-04-06T11:51:55.968Z,5.83
2018-04-06T11:54:22.158Z,5.80
2018-04-06T11:56:48.491Z,6.70
2018-04-06T11:59:15.263Z,4.80
2018-04-06T12:01:41.421Z,7.53
2018-04-06T12:04:07.542Z,3.87
2018-04-06T12:06:33.616Z,7.43
2018-04-06T12:08:59.684Z,8.70
2018-04-06T12:11:26.475Z,3.63
2018-04-06T12:13:52.661Z,6.50
2018-04-06T12:16:18.796Z,6.50
2018-04-06T12:18:44.851Z,6.00
2018-04-06T12:21:11.233Z,3.30
2018-04-06T12:23:37.279Z,5.93
2018-04-06T12:26:04.388Z,7.87
2018-04-06T12:28:31.604Z,4.53
2018-04-06T12:30:57.969Z,9.53
2018-04-06T12:33:25.150Z,4.43
2018-04-06T12:38:26.743Z,6.10
2018-04-06T12:40:52.905Z,3.03
2018-04-06T12:43:19.847Z,5.33
2018-04-06T12:45:47.125Z,10.23
2018-04-06T12:48:13.322Z,4.63
2018-04-06T12:50:40.088Z,4.80
2018-04-06T12:53:06.432Z,3.40
2018-04-06T12:55:34.170Z,18.10
2018-04-06T12:58:01.280Z,4.83
2018-04-06T13:00:28.816Z,4.60
2018-04-06T13:02:55.261Z,4.90
2018-04-06T13:05:21.544Z,5.50
2018-04-06T13:07:49.089Z,3.93
2018-04-06T13:10:15.391Z,5.40
2018-04-06T13:12:42.490Z,8.80
2018-04-06T13:32:08.083Z,4.67
2018-04-06T13:34:34.279Z,3.37
2018-04-06T13:37:00.651Z,6.63
2018-04-06T13:39:27.592Z,7.40
2018-04-06T13:41:55.743Z,4.73
2018-04-06T13:44:22.056Z,4.67
2018-04-06T13:46:48.234Z,5.63
2018-04-06T13:49:14.373Z,4.80
2018-04-06T13:51:40.473Z,6.70
2018-04-06T13:54:06.768Z,4.33
2018-04-06T13:56:32.854Z,6.07
2018-04-06T13:59:00.695Z,5.00
2018-04-06T14:01:30.627Z,6.47
2018-04-06T14:03:57.866Z,4.03
2018-04-06T14:06:23.890Z,6.63
2018-04-06T14:08:49.908Z,5.30
2018-04-06T14:11:16.025Z,5.50
2018-04-06T14:13:42.565Z,7.27
2018-04-06T14:16:08.546Z,5.23
2018-04-06T14:18:34.620Z,6.77
2018-04-06T14:21:00.841Z,4.80
2018-04-06T14:23:26.996Z,6.13
2018-04-06T14:25:53.000Z,5.33
2018-04-06T14:28:19.754Z,6.07
2018-04-06T14:30:45.792Z,8.70
2018-04-06T14:33:11.760Z,5.70
2018-04-06T14:35:38.711Z,8.43
2018-04-06T14:38:05.591Z,5.47
2018-04-06T14:40:33.713Z,11.47
2018-04-06T14:43:01.497Z,3.67
2018-04-06T14:45:28.810Z,4.50
2018-04-06T14:47:54.953Z,6.13
2018-04-06T14:50:21.046Z,4.47
2018-04-06T14:52:47.076Z,7.27
2018-04-06T14:55:14.065Z,4.13
2018-04-06T14:57:40.228Z,5.33
2018-04-06T15:00:06.219Z,5.33
2018-04-06T15:02:32.275Z,3.97
2018-04-06T15:04:58.301Z,5.50
2018-04-06T15:07:24.348Z,7.43
2018-04-06T15:09:50.393Z,4.27
2018-04-06T15:12:16.436Z,8.80
2018-04-06T15:14:42.444Z,4.23
2018-04-06T15:17:08.440Z,5.83
2018-04-06T15:19:35.528Z,5.10
2018-04-06T15:22:01.622Z,5.00
2018-04-06T15:24:28.841Z,4.70
2018-04-06T15:26:54.904Z,5.77
2018-04-06T15:29:21.576Z,8.43
2018-04-06T15:31:47.594Z,5.63
2018-04-06T15:34:13.634Z,4.90
2018-04-06T15:36:39.666Z,5.30
2018-04-06T15:39:06.209Z,6.40
2018-04-06T15:41:33.807Z,6.70
2018-04-06T15:44:01.060Z,5.87
2018-04-06T15:46:27.145Z,5.00
2018-04-06T15:48:53.582Z,10.70
2018-04-06T15:51:20.359Z,7.33
2018-04-06T15:53:46.526Z,11.53
2018-04-06T15:56:12.604Z,13.60
2018-04-06T15:58:38.667Z,14.70
2018-04-06T16:01:06.173Z,10.93
2018-04-06T16:03:32.482Z,5.17
2018-04-06T16:05:58.616Z,5.90
2018-04-06T16:08:25.242Z,7.10
2018-04-06T16:10:51.502Z,6.00
2018-04-06T16:13:17.709Z,9.00
2018-04-06T16:15:44.472Z,8.53
2018-04-06T16:18:10.499Z,12.53
2018-04-06T16:20:36.999Z,14.47
2018-04-06T16:23:03.260Z,14.13
2018-04-06T16:25:29.710Z,10.83
2018-04-06T16:27:56.683Z,6.50
2018-04-06T16:30:22.732Z,8.30
2018-04-06T16:32:49.678Z,7.90
2018-04-06T16:35:16.498Z,9.27
2018-04-06T16:37:42.627Z,10.93
2018-04-06T16:40:08.758Z,8.23
2018-04-06T16:42:35.439Z,8.93
2018-04-06T16:45:01.459Z,6.23
2018-04-06T16:47:27.601Z,7.63
2018-04-06T16:49:54.115Z,11.87
2018-04-06T16:52:20.147Z,17.60
2018-04-06T16:54:46.204Z,30.70
2018-04-06T16:57:12.247Z,8.03
2018-04-06T16:59:38.375Z,7.73
2018-04-06T17:02:04.578Z,8.27
2018-04-06T17:04:31.184Z,9.73
2018-04-06T17:06:57.314Z,8.53
2018-04-06T17:09:23.517Z,7.67
2018-04-06T17:11:49.805Z,6.63
2018-04-06T17:14:15.804Z,7.30
2018-04-06T17:16:41.835Z,7.57
2018-04-06T17:19:08.022Z,8.23
2018-04-06T17:21:35.067Z,7.10
2018-04-06T17:24:01.129Z,8.10
2018-04-06T17:26:27.471Z,9.87
2018-04-06T17:28:54.406Z,9.17
2018-04-06T17:31:20.447Z,6.43
2018-04-06T17:33:46.575Z,7.50
2018-04-06T17:36:13.270Z,6.20
2018-04-06T17:38:39.475Z,5.70
2018-04-06T17:41:05.609Z,9.40
2018-04-06T17:43:31.697Z,6.90
2018-04-06T17:45:57.831Z,8.83
2018-04-06T17:48:24.011Z,8.23
2018-04-06T17:50:50.338Z,5.93
2018-04-06T17:53:17.431Z,7.97
2018-04-06T17:55:44.076Z,7.70
2018-04-06T17:58:10.153Z,12.57
2018-04-06T18:00:36.243Z,17.67
2018-04-06T18:03:02.345Z,10.90
2018-04-06T18:05:29.190Z,10.40
2018-04-06T18:07:55.796Z,12.73
2018-04-06T18:10:21.802Z,6.97
2018-04-06T18:12:47.824Z,9.10
2018-04-06T18:15:14.528Z,9.40
2018-04-06T18:17:40.651Z,10.10
2018-04-06T18:20:06.735Z,7.17
2018-04-06T18:22:33.013Z,10.37
2018-04-06T18:24:59.075Z,8.50
2018-04-06T18:27:25.232Z,11.07
2018-04-06T18:29:51.223Z,13.50
2018-04-06T18:32:17.367Z,7.77
2018-04-06T18:34:43.513Z,8.07
2018-04-06T18:37:09.582Z,6.10
2018-04-06T18:39:35.626Z,5.60
2018-04-06T18:42:01.724Z,10.07
2018-04-06T18:44:28.330Z,7.03
2018-04-06T18:46:54.420Z,7.93
2018-04-06T18:49:20.604Z,6.57
2018-04-06T18:51:46.620Z,6.40
2018-04-06T18:54:12.681Z,22.60
2018-04-06T18:56:39.623Z,10.77
2018-04-06T18:59:07.502Z,13.73
2018-04-06T19:01:33.991Z,10.63
2018-04-06T19:04:00.135Z,9.40
2018-04-06T19:06:26.115Z,9.83
2018-04-06T19:08:53.064Z,12.80
2018-04-06T19:11:19.037Z,15.90
2018-04-06T19:13:45.361Z,8.23
2018-04-06T19:16:11.501Z,9.70
2018-04-06T19:18:37.543Z,6.40
2018-04-06T19:21:04.013Z,9.13
2018-04-06T19:23:30.192Z,7.60
2018-04-06T19:25:56.472Z,8.53
2018-04-06T19:28:22.572Z,12.70
2018-04-06T19:30:48.517Z,8.27
2018-04-06T19:33:15.257Z,8.50
2018-04-06T19:35:41.418Z,7.27
2018-04-06T19:38:08.011Z,10.23
2018-04-06T19:40:34.505Z,14.17
2018-04-06T19:43:00.982Z,9.73
2018-04-06T19:45:27.089Z,13.53
2018-04-06T19:47:53.121Z,13.57
2018-04-06T19:50:19.235Z,11.53
2018-04-06T19:52:45.263Z,10.77
2018-04-06T19:55:11.358Z,10.10
2018-04-06T19:57:38.387Z,8.40
2018-04-06T20:00:04.438Z,9.30
2018-04-06T20:02:30.595Z,8.90
2018-04-06T20:04:57.124Z,9.73
2018-04-06T20:07:23.167Z,9.53
2018-04-06T20:09:49.301Z,11.30
2018-04-06T20:12:15.353Z,8.47
2018-04-06T20:14:44.352Z,9.37
2018-04-06T20:17:11.029Z,9.70
2018-04-06T20:19:37.445Z,8.50
2018-04-06T20:22:03.637Z,9.40
2018-04-06T20:24:30.927Z,8.90
2018-04-06T20:26:57.022Z,9.30
2018-04-06T20:29:23.871Z,11.73
2018-04-06T20:31:49.915Z,13.07
2018-04-06T20:34:16.044Z,12.10
2018-04-06T20:36:42.520Z,10.53
2018-04-06T20:39:08.704Z,9.07
2018-04-06T20:41:35.166Z,10.97
2018-04-06T20:44:01.800Z,11.33
2018-04-06T20:46:28.016Z,15.23
2018-04-06T20:48:54.109Z,13.00
2018-04-06T20:51:20.968Z,12.93
2018-04-06T20:53:46.945Z,16.23
2018-04-06T20:56:12.961Z,13.40
2018-04-06T20:58:39.040Z,13.70
2018-04-06T21:01:05.096Z,14.90
2018-04-06T21:03:31.205Z,16.30
2018-04-06T21:05:58.169Z,21.23
2018-04-06T21:08:24.272Z,11.53
2018-04-06T21:10:50.721Z,11.57
2018-04-06T21:13:16.875Z,19.33
2018-04-06T21:15:43.182Z,15.27
2018-04-06T21:18:10.924Z,19.03
2018-04-06T21:20:37.001Z,16.80
2018-04-06T21:23:03.137Z,21.10
2018-04-06T21:25:32.035Z,11.50
2018-04-06T21:27:58.396Z,9.40
2018-04-06T21:30:24.498Z,8.90
2018-04-06T21:32:50.609Z,9.27
2018-04-06T21:35:16.631Z,22.83
2018-04-06T21:37:42.715Z,11.30
2018-04-06T21:40:09.911Z,17.70
2018-04-06T21:42:35.888Z,11.30
2018-04-06T21:45:02.167Z,9.37
2018-04-06T21:47:28.161Z,16.37
2018-04-06T21:49:54.675Z,12.77
2018-04-06T21:52:20.695Z,23.27
2018-04-06T21:54:47.619Z,15.00
2018-04-06T21:57:13.863Z,18.60
2018-04-06T21:59:40.462Z,11.80
2018-04-06T22:02:06.554Z,22.57
2018-04-06T22:04:32.630Z,17.07
2018-04-06T22:06:58.590Z,14.67
2018-04-06T22:09:24.816Z,9.73
2018-04-06T22:11:50.874Z,9.10
2018-04-06T22:14:16.901Z,8.03
2018-04-06T22:16:42.991Z,10.43
2018-04-06T22:19:09.358Z,10.80
2018-04-06T22:21:35.342Z,7.43
2018-04-06T22:24:01.401Z,9.90
2018-04-06T22:26:27.425Z,9.27
2018-04-06T22:28:53.452Z,12.03
2018-04-06T22:31:19.526Z,8.60
2018-04-06T22:33:45.557Z,9.33
2018-04-06T22:36:13.175Z,11.80
2018-04-06T22:38:39.276Z,7.73
2018-04-06T22:41:05.529Z,8.23
2018-04-06T22:43:32.466Z,8.00
2018-04-06T22:45:58.561Z,7.27
2018-04-06T22:48:24.595Z,10.07
2018-04-06T22:50:50.575Z,10.33
2018-04-06T22:53:16.883Z,8.50
2018-04-06T22:55:42.931Z,9.80
2018-04-06T22:58:08.999Z,12.80
2018-04-06T23:00:35.055Z,9.03
2018-04-06T23:03:01.132Z,9.33
2018-04-06T23:05:27.274Z,10.13
2018-04-06T23:07:53.398Z,15.10
2018-04-06T23:10:19.689Z,14.53
2018-04-06T23:12:45.725Z,9.50
2018-04-06T23:15:12.836Z,7.97
2018-04-06T23:17:39.602Z,9.10
2018-04-06T23:20:05.712Z,12.67
2018-04-06T23:22:32.188Z,11.13
2018-04-06T23:24:58.228Z,15.63
2018-04-06T23:27:24.766Z,17.83
2018-04-06T23:29:50.770Z,15.70
2018-04-06T23:32:16.920Z,11.87
2018-04-06T23:34:43.329Z,11.63
2018-04-06T23:37:10.136Z,15.10
2018-04-06T23:39:36.165Z,11.87
2018-04-06T23:42:02.203Z,18.00
2018-04-06T23:44:28.236Z,10.07
2018-04-06T23:46:54.463Z,18.70
2018-04-06T23:49:20.759Z,11.30
2018-04-06T23:51:46.808Z,9.60
2018-04-06T23:54:12.964Z,10.77
2018-04-06T23:56:38.959Z,16.97
2018-04-06T23:59:05.079Z,8.97
